createdAt,value
2022-12-19T00:01:07.287Z,-18.73
2022-12-19T00:04:12.250Z,-18.81
2022-12-19T00:07:13.999Z,-18.89
2022-12-19T00:10:15.948Z,-18.92
2022-12-19T00:13:17.572Z,-18.94
2022-12-19T00:16:21.894Z,-18.95
2022-12-19T00:19:23.566Z,-18.98
2022-12-19T00:22:25.247Z,-19.03
2022-12-19T00:25:26.996Z,-19.07
2022-12-19T00:28:29.576Z,-19.12
2022-12-19T00:31:33.892Z,-19.21
2022-12-19T00:34:35.767Z,-19.27
2022-12-19T00:37:37.476Z,-19.31
2022-12-19T00:40:42.567Z,-19.37
2022-12-19T00:43:44.979Z,-19.47
2022-12-19T00:46:52.702Z,-19.50
2022-12-19T00:49:54.867Z,-19.44
2022-12-19T00:52:56.623Z,-19.36
2022-12-19T00:56:04.828Z,-19.35
2022-12-19T00:59:06.600Z,-19.32
2022-12-19T01:02:08.436Z,-19.38
2022-12-19T01:05:10.371Z,-19.42
2022-12-19T01:08:12.055Z,-19.47
2022-12-19T01:11:13.754Z,-19.53
2022-12-19T01:14:22.297Z,-19.49
2022-12-19T01:17:24.420Z,-19.37
2022-12-19T01:20:29.902Z,-19.30
2022-12-19T01:23:32.114Z,-19.24
2022-12-19T01:26:34.682Z,-19.19
2022-12-19T01:29:37.198Z,-19.16
2022-12-19T01:32:50.191Z,-19.16
2022-12-19T01:35:51.908Z,-19.16
2022-12-19T01:38:57.385Z,-19.18
2022-12-19T01:41:59.112Z,-19.20
2022-12-19T01:45:13.553Z,-19.27
2022-12-19T01:48:19.303Z,-19.37
2022-12-19T01:51:24.517Z,-19.46
2022-12-19T01:54:35.320Z,-19.55
2022-12-19T01:57:38.000Z,-19.63
2022-12-19T02:00:42.498Z,-19.74
2022-12-19T02:03:45.242Z,-19.82
2022-12-19T02:06:47.365Z,-19.85
2022-12-19T02:09:56.961Z,-19.92
2022-12-19T02:12:59.785Z,-19.96
2022-12-19T02:16:24.580Z,-19.93
2022-12-19T02:19:49.924Z,-19.93
2022-12-19T02:23:00.585Z,-19.97
2022-12-19T02:26:24.297Z,-19.99
2022-12-19T02:29:34.356Z,-20.00
2022-12-19T02:32:58.302Z,-20.02
2022-12-19T02:36:08.584Z,-20.07
2022-12-19T02:39:30.605Z,-20.09
2022-12-19T02:42:39.364Z,-20.34
2022-12-19T02:45:42.611Z,-20.45
2022-12-19T02:48:44.736Z,-20.48
2022-12-19T02:51:46.514Z,-20.52
2022-12-19T02:54:50.280Z,-20.55
2022-12-19T02:58:20.392Z,-20.59
2022-12-19T03:01:41.034Z,-20.66
2022-12-19T03:04:54.773Z,-20.58
2022-12-19T03:08:04.139Z,-20.42
2022-12-19T03:11:13.451Z,-20.35
2022-12-19T03:14:19.323Z,-20.26
2022-12-19T03:17:21.218Z,-20.12
2022-12-19T03:20:26.537Z,-20.03
2022-12-19T03:23:29.267Z,-19.95
2022-12-19T03:27:00.361Z,-19.88
2022-12-19T03:30:06.992Z,-19.84
2022-12-19T03:33:10.246Z,-20.15
2022-12-19T03:36:16.651Z,-20.63
2022-12-19T03:39:19.707Z,-20.92
2022-12-19T03:42:42.213Z,-20.92
2022-12-19T03:45:58.216Z,-20.81
2022-12-19T03:48:59.913Z,-20.65
2022-12-19T03:52:19.685Z,-20.58
2022-12-19T03:55:35.859Z,-20.64
2022-12-19T03:58:40.389Z,-20.67
2022-12-19T04:01:42.599Z,-20.63
2022-12-19T04:04:46.723Z,-20.58
2022-12-19T04:07:50.156Z,-20.56
2022-12-19T04:10:55.925Z,-20.54
2022-12-19T04:14:04.587Z,-20.42
2022-12-19T04:17:18.156Z,-20.26
2022-12-19T04:20:21.509Z,-20.11
2022-12-19T04:23:29.314Z,-20.00
2022-12-19T04:26:31.765Z,-19.93
2022-12-19T04:29:35.860Z,-19.79
2022-12-19T04:32:37.905Z,-19.64
2022-12-19T04:35:39.787Z,-19.57
2022-12-19T04:38:41.643Z,-19.49
2022-12-19T04:41:43.404Z,-19.39
2022-12-19T04:44:45.215Z,-19.38
2022-12-19T04:47:46.932Z,-19.50
2022-12-19T04:50:48.560Z,-19.65
2022-12-19T04:53:50.333Z,-19.71
2022-12-19T04:56:53.409Z,-19.78
2022-12-19T04:59:55.050Z,-19.82
2022-12-19T05:02:56.926Z,-19.76
2022-12-19T05:06:11.326Z,-19.77
2022-12-19T05:09:13.161Z,-19.73
2022-12-19T05:12:14.895Z,-19.56
2022-12-19T05:15:17.280Z,-19.41
2022-12-19T05:18:18.924Z,-19.39
2022-12-19T05:21:21.483Z,-19.61
2022-12-19T05:24:23.415Z,-19.82
2022-12-19T05:27:25.133Z,-19.95
2022-12-19T05:30:27.399Z,-20.08
2022-12-19T05:33:29.056Z,-20.20
2022-12-19T05:36:32.655Z,-20.17
2022-12-19T05:39:35.143Z,-20.03
2022-12-19T05:42:36.947Z,-19.98
2022-12-19T05:45:40.131Z,-19.92
2022-12-19T05:48:41.793Z,-19.76
2022-12-19T05:51:43.710Z,-19.67
2022-12-19T05:54:45.885Z,-19.59
2022-12-19T05:57:47.815Z,-19.53
2022-12-19T06:00:49.618Z,-19.53
2022-12-19T06:03:52.398Z,-19.57
2022-12-19T06:06:54.082Z,-19.53
2022-12-19T06:09:56.167Z,-19.50
2022-12-19T06:12:57.757Z,-19.48
2022-12-19T06:16:07.228Z,-19.41
2022-12-19T06:19:09.123Z,-19.30
2022-12-19T06:22:12.268Z,-19.14
2022-12-19T06:25:14.007Z,-19.04
2022-12-19T06:28:15.874Z,-19.03
2022-12-19T06:31:19.209Z,-18.95
2022-12-19T06:34:47.022Z,-18.92
2022-12-19T06:37:42.711Z,-18.88
2022-12-19T06:41:03.239Z,-18.92
2022-12-19T06:44:07.654Z,-18.94
2022-12-19T06:47:10.284Z,-19.10
2022-12-19T06:50:11.831Z,-19.25
2022-12-19T06:53:13.627Z,-19.18
2022-12-19T06:56:16.879Z,-19.09
2022-12-19T06:59:18.593Z,-18.97
2022-12-19T07:02:22.311Z,-18.94
2022-12-19T07:05:24.549Z,-18.91
2022-12-19T07:08:29.795Z,-18.75
2022-12-19T07:11:31.500Z,-18.51
2022-12-19T07:14:33.473Z,-18.48
2022-12-19T07:17:36.302Z,-18.72
2022-12-19T07:20:44.826Z,-19.02
2022-12-19T07:23:46.863Z,-19.68
2022-12-19T07:26:48.608Z,-19.60
2022-12-19T07:29:50.399Z,-19.36
2022-12-19T07:32:52.053Z,-19.16
2022-12-19T07:35:53.651Z,-18.99
2022-12-19T07:38:55.348Z,-18.79
2022-12-19T07:41:57.001Z,-18.52
2022-12-19T07:44:58.563Z,-18.13
2022-12-19T07:48:01.190Z,-17.75
2022-12-19T07:51:02.959Z,-17.83
2022-12-19T07:54:05.829Z,-18.08
2022-12-19T07:57:08.101Z,-18.27
2022-12-19T08:00:10.439Z,-18.26
2022-12-19T08:03:12.623Z,-18.12
2022-12-19T08:06:14.532Z,-17.86
2022-12-19T08:09:16.328Z,-17.63
2022-12-19T08:12:17.989Z,-17.43
2022-12-19T08:15:19.616Z,-17.39
2022-12-19T08:18:21.302Z,-17.25
2022-12-19T08:21:23.115Z,-17.10
2022-12-19T08:24:26.841Z,-16.81
2022-12-19T08:27:29.747Z,-16.36
2022-12-19T08:30:31.422Z,-15.96
2022-12-19T08:33:33.418Z,-15.55
2022-12-19T08:36:35.115Z,-15.24
2022-12-19T08:39:37.339Z,-14.94
2022-12-19T08:42:39.310Z,-14.62
2022-12-19T08:45:41.112Z,-14.10
2022-12-19T08:48:42.828Z,-13.56
2022-12-19T08:51:44.597Z,-13.14
2022-12-19T08:54:46.465Z,-12.58
2022-12-19T08:57:48.507Z,-11.78
2022-12-19T09:00:55.511Z,-10.69
2022-12-19T09:05:17.853Z,-9.43
2022-12-19T09:07:21.935Z,-9.27
2022-12-19T09:10:23.805Z,-9.45
2022-12-19T09:13:26.219Z,-9.09
2022-12-19T09:16:28.943Z,-8.41
2022-12-19T09:19:30.940Z,-8.24
2022-12-19T09:22:32.679Z,-8.27
2022-12-19T09:25:34.421Z,-8.15
2022-12-19T09:28:37.730Z,-7.54
2022-12-19T09:31:39.387Z,-7.17
2022-12-19T09:34:41.070Z,-6.62
2022-12-19T09:37:42.865Z,-6.08
2022-12-19T09:40:55.169Z,-5.74
2022-12-19T09:44:16.247Z,-5.63
2022-12-19T09:47:23.233Z,-5.26
2022-12-19T09:50:52.639Z,-4.51
2022-12-19T09:54:23.599Z,-4.01
2022-12-19T09:57:48.458Z,-3.45
2022-12-19T10:01:00.226Z,-2.42
2022-12-19T10:04:12.161Z,-1.86
2022-12-19T10:07:33.155Z,-1.55
2022-12-19T10:12:39.583Z,-1.25
2022-12-19T10:15:03.518Z,-1.21
2022-12-19T10:18:15.534Z,-1.67
2022-12-19T10:22:16.204Z,-2.24
2022-12-19T10:25:26.243Z,-2.99
2022-12-19T10:28:35.111Z,-3.88
2022-12-19T10:31:41.614Z,-4.51
2022-12-19T10:34:45.452Z,-4.60
2022-12-19T10:38:05.758Z,-4.49
2022-12-19T10:41:15.898Z,-4.69
2022-12-19T10:44:18.538Z,-5.07
2022-12-19T10:47:20.333Z,-5.33
2022-12-19T10:50:23.423Z,-5.53
2022-12-19T10:53:29.811Z,-5.87
2022-12-19T10:56:37.407Z,-6.53
2022-12-19T10:59:39.830Z,-7.25
2022-12-19T11:02:46.129Z,-7.95
2022-12-19T11:05:58.387Z,-8.49
2022-12-19T11:09:21.149Z,-8.92
2022-12-19T11:16:09.512Z,-9.15
2022-12-19T11:20:11.573Z,-8.97
2022-12-19T11:29:18.092Z,-8.40
2022-12-19T11:29:34.803Z,-7.71
2022-12-19T11:30:38.646Z,-7.10
2022-12-19T11:33:17.809Z,-6.70
2022-12-19T11:36:39.674Z,-6.62
2022-12-19T11:39:48.430Z,-6.90
2022-12-19T11:43:25.463Z,-7.07
2022-12-19T11:46:40.369Z,-7.14
2022-12-19T11:49:46.344Z,-7.15
2022-12-19T11:53:14.702Z,-7.42
2022-12-19T11:56:21.123Z,-7.81
2022-12-19T11:59:36.232Z,-7.85
2022-12-19T12:02:52.609Z,-7.87
2022-12-19T12:05:56.646Z,-8.01
2022-12-19T12:10:43.603Z,-8.05
2022-12-19T12:22:47.337Z,-8.56
2022-12-19T12:30:07.344Z,-9.00
2022-12-19T12:31:12.277Z,-9.21
2022-12-19T12:31:14.531Z,-9.27
2022-12-19T12:31:49.678Z,-9.00
2022-12-19T12:35:28.680Z,-8.79
2022-12-19T12:35:28.788Z,-8.96
2022-12-19T12:38:44.839Z,-8.55
2022-12-19T12:42:03.847Z,-8.37
2022-12-19T12:45:20.456Z,-8.22
2022-12-19T12:48:39.044Z,-8.13
2022-12-19T12:51:41.334Z,-7.96
2022-12-19T12:54:44.724Z,-7.95
2022-12-19T12:57:46.481Z,-7.90
2022-12-19T13:01:09.225Z,-7.89
2022-12-19T13:04:11.076Z,-7.92
2022-12-19T13:07:35.041Z,-7.84
2022-12-19T13:10:54.227Z,-7.75
2022-12-19T13:13:58.474Z,-7.75
2022-12-19T13:17:04.755Z,-7.83
2022-12-19T13:20:06.483Z,-7.99
2022-12-19T13:23:34.139Z,-8.16
2022-12-19T13:26:51.344Z,-8.20
2022-12-19T13:30:12.588Z,-8.15
2022-12-19T13:33:15.823Z,-8.09
2022-12-19T13:39:50.342Z,-8.20
2022-12-19T13:40:22.533Z,-8.37
2022-12-19T13:43:47.542Z,-8.46
2022-12-19T13:46:49.777Z,-8.66
2022-12-19T13:49:52.388Z,-8.70
2022-12-19T13:52:54.307Z,-8.85
2022-12-19T13:56:26.149Z,-9.03
2022-12-19T13:59:33.439Z,-9.19
2022-12-19T14:02:45.344Z,-9.43
2022-12-19T14:06:18.689Z,-9.63
2022-12-19T14:11:26.230Z,-9.69
2022-12-19T14:13:48.394Z,-9.84
2022-12-19T14:16:44.162Z,-10.04
2022-12-19T14:19:49.863Z,-10.30
2022-12-19T14:22:59.558Z,-10.41
2022-12-19T14:28:17.738Z,-10.59
2022-12-19T14:29:45.056Z,-10.75
2022-12-19T14:33:47.424Z,-11.08
2022-12-19T14:36:17.472Z,-11.40
2022-12-19T14:39:42.033Z,-11.63
2022-12-19T14:43:57.345Z,-11.88
2022-12-19T14:53:52.227Z,-12.17
2022-12-19T14:54:00.885Z,-12.36
2022-12-19T14:54:50.269Z,-12.49
2022-12-19T14:56:59.880Z,-12.57
2022-12-19T15:00:50.949Z,-12.63
2022-12-19T15:04:33.745Z,-12.68
2022-12-19T15:07:25.890Z,-12.79
2022-12-19T15:11:08.584Z,-12.84
2022-12-19T15:14:52.682Z,-12.84
2022-12-19T15:17:22.555Z,-12.83
2022-12-19T15:20:24.254Z,-12.84
2022-12-19T15:23:26.930Z,-12.81
2022-12-19T15:26:31.263Z,-12.80
2022-12-19T15:29:33.627Z,-12.80
2022-12-19T15:32:35.373Z,-12.87
2022-12-19T15:35:37.083Z,-13.09
2022-12-19T15:38:38.706Z,-13.20
2022-12-19T15:41:41.761Z,-13.37
2022-12-19T15:44:44.662Z,-13.60
2022-12-19T15:47:48.175Z,-13.81
2022-12-19T15:50:49.800Z,-13.92
2022-12-19T15:53:51.557Z,-13.91
2022-12-19T15:56:54.631Z,-13.96
2022-12-19T15:59:58.284Z,-13.94
2022-12-19T16:06:21.932Z,-13.88
2022-12-19T16:09:26.982Z,-13.88
2022-12-19T16:12:37.832Z,-13.93
2022-12-19T16:15:40.163Z,-14.00
2022-12-19T16:18:42.710Z,-14.02
2022-12-19T16:21:45.092Z,-13.96
2022-12-19T16:24:47.104Z,-13.95
2022-12-19T16:27:56.453Z,-13.95
2022-12-19T16:30:59.393Z,-13.92
2022-12-19T16:34:02.491Z,-13.97
2022-12-19T16:37:04.352Z,-14.22
2022-12-19T16:40:07.113Z,-14.52
2022-12-19T16:43:27.128Z,-14.70
2022-12-19T16:46:31.055Z,-14.78
2022-12-19T16:49:33.054Z,-14.86
2022-12-19T16:52:40.614Z,-14.94
2022-12-19T16:55:45.814Z,-15.03
2022-12-19T16:58:47.608Z,-15.08
2022-12-19T17:01:49.552Z,-15.16
2022-12-19T17:04:54.140Z,-15.33
2022-12-19T17:07:56.531Z,-15.47
2022-12-19T17:10:58.708Z,-15.52
2022-12-19T17:14:08.667Z,-15.63
2022-12-19T17:17:14.312Z,-15.76
2022-12-19T17:20:20.738Z,-15.81
2022-12-19T17:23:24.084Z,-15.82
2022-12-19T17:26:25.946Z,-15.80
2022-12-19T17:29:27.636Z,-15.66
2022-12-19T17:32:29.527Z,-15.53
2022-12-19T17:35:35.366Z,-15.48
2022-12-19T17:38:37.227Z,-15.47
2022-12-19T17:41:38.854Z,-15.46
2022-12-19T17:44:40.536Z,-15.49
2022-12-19T17:47:42.633Z,-15.56
2022-12-19T17:50:44.321Z,-15.65
2022-12-19T17:53:46.189Z,-15.66
2022-12-19T17:56:49.930Z,-15.69
2022-12-19T17:59:51.657Z,-15.69
2022-12-19T18:02:55.260Z,-15.68
2022-12-19T18:05:58.159Z,-15.69
2022-12-19T18:09:02.696Z,-15.69
2022-12-19T18:12:04.691Z,-15.68
2022-12-19T18:15:06.854Z,-15.68
2022-12-19T18:18:25.467Z,-15.69
2022-12-19T18:21:27.109Z,-15.68
2022-12-19T18:24:28.821Z,-15.64
2022-12-19T18:27:32.143Z,-15.50
2022-12-19T18:30:34.005Z,-15.27
2022-12-19T18:33:38.635Z,-15.12
2022-12-19T18:36:42.375Z,-15.14
2022-12-19T18:39:44.080Z,-15.25
2022-12-19T18:42:46.129Z,-15.29
2022-12-19T18:45:51.700Z,-15.36
2022-12-19T18:48:53.469Z,-15.42
2022-12-19T18:51:57.297Z,-15.45
2022-12-19T18:54:58.968Z,-15.51
2022-12-19T18:58:00.734Z,-15.55
2022-12-19T19:01:02.860Z,-15.51
2022-12-19T19:04:05.174Z,-15.49
2022-12-19T19:07:10.126Z,-15.47
2022-12-19T19:10:32.051Z,-15.43
2022-12-19T19:13:33.904Z,-15.47
2022-12-19T19:16:36.802Z,-15.52
2022-12-19T19:19:38.486Z,-15.58
2022-12-19T19:22:40.443Z,-15.63
2022-12-19T19:25:42.270Z,-15.65
2022-12-19T19:28:50.295Z,-15.67
2022-12-19T19:31:53.782Z,-15.70
2022-12-19T19:34:55.888Z,-15.72
2022-12-19T19:38:00.520Z,-15.77
2022-12-19T19:41:02.361Z,-15.77
2022-12-19T19:44:03.985Z,-15.76
2022-12-19T19:47:05.711Z,-15.73
2022-12-19T19:50:07.852Z,-15.68
2022-12-19T19:53:09.700Z,-15.60
2022-12-19T19:56:11.799Z,-15.50
2022-12-19T19:59:13.592Z,-15.40
2022-12-19T20:02:16.877Z,-15.28
2022-12-19T20:05:19.012Z,-15.12
2022-12-19T20:08:20.576Z,-14.95
2022-12-19T20:11:22.386Z,-14.81
2022-12-19T20:14:24.088Z,-14.65
2022-12-19T20:17:25.958Z,-14.52
2022-12-19T20:20:27.751Z,-14.35
2022-12-19T20:23:29.530Z,-14.15
2022-12-19T20:26:31.230Z,-13.98
2022-12-19T20:29:32.880Z,-13.80
2022-12-19T20:32:34.705Z,-13.65
2022-12-19T20:35:37.134Z,-13.51
2022-12-19T20:38:39.116Z,-13.37
2022-12-19T20:41:40.875Z,-13.27
2022-12-19T20:44:42.677Z,-13.18
2022-12-19T20:47:44.231Z,-13.07
2022-12-19T20:50:45.870Z,-12.97
2022-12-19T20:53:48.370Z,-12.86
2022-12-19T20:56:50.066Z,-12.84
2022-12-19T20:59:52.529Z,-12.83
2022-12-19T21:06:19.910Z,-12.25
2022-12-19T21:09:21.591Z,-12.04
2022-12-19T21:12:23.267Z,-11.91
2022-12-19T21:15:25.401Z,-11.75
2022-12-19T21:18:27.753Z,-11.61
2022-12-19T21:21:29.979Z,-11.44
2022-12-19T21:24:33.433Z,-11.28
2022-12-19T21:27:35.182Z,-11.11
2022-12-19T21:30:37.421Z,-10.95
2022-12-19T21:33:39.112Z,-10.80
2022-12-19T21:36:40.955Z,-10.66
2022-12-19T21:39:42.540Z,-10.54
2022-12-19T21:42:44.304Z,-10.45
2022-12-19T21:45:46.004Z,-10.36
2022-12-19T21:48:49.326Z,-10.25
2022-12-19T21:51:51.357Z,-10.10
2022-12-19T21:54:53.117Z,-9.98
2022-12-19T21:57:54.814Z,-9.88
2022-12-19T22:01:08.511Z,-9.79
2022-12-19T22:04:22.422Z,-9.72
2022-12-19T22:07:24.228Z,-9.63
2022-12-19T22:10:25.912Z,-9.55
2022-12-19T22:13:28.420Z,-9.42
2022-12-19T22:16:30.211Z,-9.34
2022-12-19T22:19:31.890Z,-9.33
2022-12-19T22:22:33.677Z,-9.33
2022-12-19T22:25:35.464Z,-9.28
2022-12-19T22:28:38.163Z,-9.24
2022-12-19T22:31:41.006Z,-9.15
2022-12-19T22:34:42.920Z,-9.13
2022-12-19T22:37:44.799Z,-9.08
2022-12-19T22:40:46.667Z,-9.00
2022-12-19T22:43:48.807Z,-8.94
2022-12-19T22:46:51.276Z,-8.93
2022-12-19T22:49:53.162Z,-8.86
2022-12-19T22:52:54.809Z,-8.80
2022-12-19T22:55:56.613Z,-8.76
2022-12-19T22:59:03.417Z,-8.68
2022-12-19T23:02:05.430Z,-8.60
2022-12-19T23:05:07.991Z,-8.54
2022-12-19T23:08:09.688Z,-8.51
2022-12-19T23:11:15.284Z,-8.46
2022-12-19T23:14:18.343Z,-8.40
2022-12-19T23:17:20.284Z,-8.37
2022-12-19T23:20:21.822Z,-8.33
2022-12-19T23:23:23.919Z,-8.31
2022-12-19T23:26:33.674Z,-8.29
2022-12-19T23:29:35.444Z,-8.26
2022-12-19T23:32:37.241Z,-8.23
2022-12-19T23:35:38.897Z,-8.16
2022-12-19T23:38:42.377Z,-8.06
2022-12-19T23:41:44.211Z,-8.00
2022-12-19T23:44:46.214Z,-7.95
2022-12-19T23:47:48.638Z,-7.92
2022-12-19T23:50:57.940Z,-7.87
2022-12-19T23:53:59.663Z,-7.83
2022-12-19T23:57:01.351Z,-7.79
